Homerville, Ohio
Current Conditions -  °F | °C
As of 10:56 PM on Saturday 24 Jan 2015 (Local Time) from KBJJ Reporting Station
Haze Haze  
Wind Chill: -5°   Ceiling: 2500
Heat Index:   Visibility: 6mi
Dew Point: -2°   Wind: 10mph
Humidity: 88%   Direction: 250°WSW
Pressure: 29.7"   Gusts: NA
Location:  41.03°N, 82.13°W
Report Text: KBJJ 250356Z AUTO 25009KT 6SM BR BKN025 OVC033 00/M02 A2970 RMK AO2 SLP069 T00001017 TSNO
Loading
Personal Weather Stations






























Interactive Weather Map New forecast layout! Learn more

10-Day Weather Forecast

Advertisements
Track Severe Weather on mobile